createdAt,value
2023-03-16T00:00:24.605Z,68.30
2023-03-16T00:01:46.659Z,68.40
2023-03-16T00:03:07.365Z,68.10
2023-03-16T00:04:28.127Z,68.20
2023-03-16T00:05:50.194Z,68.70
2023-03-16T00:07:11.867Z,68.30
2023-03-16T00:08:32.758Z,68.40
2023-03-16T00:09:53.261Z,68.70
2023-03-16T00:11:13.985Z,68.50
2023-03-16T00:12:35.041Z,69.30
2023-03-16T00:13:55.697Z,68.60
2023-03-16T00:15:16.370Z,68.40
2023-03-16T00:16:37.457Z,68.50
2023-03-16T00:17:59.330Z,68.40
2023-03-16T00:19:20.305Z,68.80
2023-03-16T00:20:41.460Z,69.20
2023-03-16T00:22:02.358Z,69.20
2023-03-16T00:23:23.430Z,69.00
2023-03-16T00:24:44.126Z,69.00
2023-03-16T00:26:06.301Z,68.90
2023-03-16T00:27:27.206Z,69.50
2023-03-16T00:28:47.764Z,69.50
2023-03-16T00:30:10.112Z,69.30
2023-03-16T00:31:30.666Z,68.90
2023-03-16T00:32:51.591Z,69.10
2023-03-16T00:34:13.606Z,69.10
2023-03-16T00:35:34.274Z,69.50
2023-03-16T00:36:55.084Z,69.70
2023-03-16T00:38:16.236Z,69.50
2023-03-16T00:39:36.930Z,69.70
2023-03-16T00:40:57.368Z,69.60
2023-03-16T00:42:19.449Z,69.80
2023-03-16T00:43:41.333Z,69.60
2023-03-16T00:45:02.160Z,70.00
2023-03-16T00:46:23.021Z,70.10
2023-03-16T00:47:43.579Z,70.40
2023-03-16T00:49:04.161Z,70.50
2023-03-16T00:50:26.377Z,70.30
2023-03-16T00:51:47.205Z,70.30
2023-03-16T00:53:08.091Z,70.30
2023-03-16T00:54:29.252Z,70.70
2023-03-16T00:55:50.202Z,70.30
2023-03-16T00:57:11.570Z,70.80
2023-03-16T00:58:32.341Z,71.40
2023-03-16T00:59:52.859Z,71.30
2023-03-16T01:01:15.229Z,70.70
2023-03-16T01:02:36.070Z,70.80
2023-03-16T01:03:56.939Z,70.90
2023-03-16T01:05:17.742Z,71.40
2023-03-16T01:06:40.027Z,71.70
2023-03-16T01:08:00.930Z,71.40
2023-03-16T01:09:21.908Z,71.10
2023-03-16T01:10:42.461Z,71.00
2023-03-16T01:12:03.912Z,71.40
2023-03-16T01:13:24.469Z,71.80
2023-03-16T01:14:45.331Z,72.20
2023-03-16T01:16:06.743Z,72.10
2023-03-16T01:17:27.879Z,72.10
2023-03-16T01:18:48.302Z,72.10
2023-03-16T01:20:10.469Z,72.30
2023-03-16T01:21:31.175Z,72.50
2023-03-16T01:22:53.377Z,72.40
2023-03-16T01:24:13.909Z,72.60
2023-03-16T01:25:34.843Z,72.60
2023-03-16T01:26:55.472Z,72.70
2023-03-16T01:28:15.992Z,72.40
2023-03-16T01:29:37.394Z,72.70
2023-03-16T01:31:01.517Z,72.50
2023-03-16T01:32:22.054Z,72.70
2023-03-16T01:33:43.537Z,72.80
2023-03-16T01:35:04.419Z,72.70
2023-03-16T01:36:25.350Z,72.70
2023-03-16T01:37:46.297Z,72.70
2023-03-16T01:39:08.492Z,72.50
2023-03-16T01:40:29.412Z,72.80
2023-03-16T01:41:54.252Z,73.10
2023-03-16T01:43:14.781Z,72.90
2023-03-16T01:44:51.347Z,73.00
2023-03-16T01:46:29.835Z,72.80
2023-03-16T01:47:50.583Z,73.50
2023-03-16T01:49:13.113Z,73.30
2023-03-16T01:50:33.499Z,73.40
2023-03-16T01:51:56.774Z,73.30
2023-03-16T01:53:17.376Z,73.00
2023-03-16T01:54:42.548Z,73.60
2023-03-16T01:56:05.882Z,73.40
2023-03-16T01:57:28.161Z,73.20
2023-03-16T01:58:48.783Z,73.50
2023-03-16T02:00:11.382Z,73.70
2023-03-16T02:01:31.885Z,73.50
2023-03-16T02:02:55.300Z,73.10
2023-03-16T02:04:32.589Z,73.70
2023-03-16T02:05:57.693Z,74.50
2023-03-16T02:07:19.861Z,74.50
2023-03-16T02:08:42.867Z,74.70
2023-03-16T02:10:06.565Z,75.50
2023-03-16T02:11:27.206Z,75.90
2023-03-16T02:12:48.269Z,75.80
2023-03-16T02:14:10.148Z,75.80
2023-03-16T02:15:30.991Z,76.20
2023-03-16T02:16:52.261Z,76.80
2023-03-16T02:18:12.734Z,76.60
2023-03-16T02:19:38.818Z,76.80
2023-03-16T02:21:05.218Z,76.10
2023-03-16T02:22:25.760Z,76.50
2023-03-16T02:23:46.562Z,77.30
2023-03-16T02:25:08.861Z,77.20
2023-03-16T02:26:34.620Z,77.10
2023-03-16T02:28:00.909Z,77.40
2023-03-16T02:29:29.545Z,77.20
2023-03-16T02:30:51.589Z,77.30
2023-03-16T02:32:13.881Z,77.40
2023-03-16T02:33:35.447Z,78.10
2023-03-16T02:34:56.065Z,77.60
2023-03-16T02:36:19.391Z,77.60
2023-03-16T02:37:40.032Z,77.70
2023-03-16T02:39:00.360Z,78.10
2023-03-16T02:40:23.244Z,78.40
2023-03-16T02:41:43.834Z,78.00
2023-03-16T02:43:06.710Z,77.90
2023-03-16T02:44:30.579Z,78.80
2023-03-16T02:45:54.490Z,78.80
2023-03-16T02:47:20.836Z,78.40
2023-03-16T02:48:44.160Z,78.80
2023-03-16T02:50:05.647Z,79.00
2023-03-16T02:51:26.254Z,79.20
2023-03-16T02:52:46.985Z,79.00
2023-03-16T02:54:07.563Z,79.10
2023-03-16T02:55:28.156Z,79.40
2023-03-16T02:56:48.839Z,79.90
2023-03-16T02:58:09.570Z,79.90
2023-03-16T02:59:30.198Z,80.10
2023-03-16T03:00:52.388Z,80.10
2023-03-16T03:02:13.008Z,79.90
2023-03-16T03:03:33.441Z,80.50
2023-03-16T03:04:54.142Z,80.40
2023-03-16T03:06:14.750Z,80.00
2023-03-16T03:07:35.548Z,80.30
2023-03-16T03:08:56.427Z,80.40
2023-03-16T03:10:17.253Z,80.60
2023-03-16T03:11:37.696Z,79.90
2023-03-16T03:12:58.722Z,81.00
2023-03-16T03:14:19.420Z,81.00
2023-03-16T03:15:40.175Z,80.90
2023-03-16T03:17:02.142Z,81.20
2023-03-16T03:18:22.566Z,81.10
2023-03-16T03:19:43.195Z,81.20
2023-03-16T03:21:04.230Z,81.10
2023-03-16T03:22:24.843Z,80.90
2023-03-16T03:23:45.241Z,81.10
2023-03-16T03:25:06.825Z,80.90
2023-03-16T03:26:27.557Z,81.10
2023-03-16T03:27:49.241Z,81.40
2023-03-16T03:29:10.081Z,81.20
2023-03-16T03:30:31.022Z,80.80
2023-03-16T03:31:51.344Z,81.30
2023-03-16T03:33:13.238Z,81.40
2023-03-16T03:34:33.889Z,81.10
2023-03-16T03:35:55.606Z,80.80
2023-03-16T03:37:16.323Z,80.50
2023-03-16T03:38:37.066Z,80.70
2023-03-16T03:39:57.751Z,80.80
2023-03-16T03:41:18.103Z,80.50
2023-03-16T03:42:38.909Z,80.70
2023-03-16T03:44:00.029Z,80.90
2023-03-16T03:45:20.416Z,80.30
2023-03-16T03:46:41.104Z,80.60
2023-03-16T03:48:01.911Z,80.70
2023-03-16T03:49:23.900Z,80.50
2023-03-16T03:50:44.559Z,80.50
2023-03-16T03:52:05.565Z,80.60
2023-03-16T03:53:26.181Z,80.40
2023-03-16T03:54:47.009Z,80.50
2023-03-16T03:56:08.038Z,80.40
2023-03-16T03:57:28.529Z,80.30
2023-03-16T03:58:48.952Z,80.60
2023-03-16T04:00:11.388Z,79.90
2023-03-16T04:01:32.186Z,80.60
2023-03-16T04:02:53.003Z,80.40
2023-03-16T04:04:13.285Z,79.60
2023-03-16T04:05:35.504Z,79.30
2023-03-16T04:06:55.962Z,80.00
2023-03-16T04:08:16.841Z,80.50
2023-03-16T04:09:37.446Z,79.90
2023-03-16T04:10:58.121Z,80.00
2023-03-16T04:12:18.687Z,80.50
2023-03-16T04:13:39.444Z,80.80
2023-03-16T04:14:59.988Z,80.70
2023-03-16T04:16:20.627Z,80.00
2023-03-16T04:17:41.219Z,80.50
2023-03-16T04:19:01.484Z,80.60
2023-03-16T04:20:22.072Z,80.70
2023-03-16T04:21:44.004Z,80.70
2023-03-16T04:23:04.726Z,80.40
2023-03-16T04:24:25.330Z,80.80
2023-03-16T04:25:46.723Z,80.50
2023-03-16T04:27:07.130Z,80.70
2023-03-16T04:28:27.863Z,80.60
2023-03-16T04:29:48.538Z,80.80
2023-03-16T04:31:10.431Z,80.90
2023-03-16T04:32:31.130Z,81.00
2023-03-16T04:33:51.745Z,81.30
2023-03-16T04:35:12.157Z,81.00
2023-03-16T04:36:33.192Z,81.10
2023-03-16T04:37:55.343Z,81.20
2023-03-16T04:39:16.288Z,82.00
2023-03-16T04:40:36.997Z,81.90
2023-03-16T04:41:57.533Z,81.60
2023-03-16T04:43:18.267Z,82.20
2023-03-16T04:44:38.877Z,82.20
2023-03-16T04:45:59.766Z,82.40
2023-03-16T04:47:20.461Z,82.70
2023-03-16T04:48:41.043Z,82.60
2023-03-16T04:50:02.502Z,82.90
2023-03-16T04:51:22.923Z,82.90
2023-03-16T04:52:43.465Z,83.20
2023-03-16T04:54:05.792Z,83.30
2023-03-16T04:55:26.820Z,83.30
2023-03-16T04:56:47.463Z,83.20
2023-03-16T04:58:08.148Z,83.90
2023-03-16T04:59:29.043Z,84.00
2023-03-16T05:00:51.928Z,83.90
2023-03-16T05:02:12.471Z,83.80
2023-03-16T05:03:32.947Z,84.20
2023-03-16T05:04:53.590Z,84.40
2023-03-16T05:06:14.246Z,84.40
2023-03-16T05:07:34.901Z,84.30
2023-03-16T05:08:55.544Z,84.00
2023-03-16T05:10:18.119Z,84.30
2023-03-16T05:11:38.546Z,84.10
2023-03-16T05:12:59.187Z,84.60
2023-03-16T05:14:25.989Z,84.80
2023-03-16T05:15:46.497Z,84.90
2023-03-16T05:17:07.037Z,85.20
2023-03-16T05:18:27.744Z,85.30
2023-03-16T05:19:48.448Z,85.80
2023-03-16T05:21:08.976Z,85.50
2023-03-16T05:22:29.817Z,85.90
2023-03-16T05:23:50.600Z,86.00
2023-03-16T05:25:11.513Z,85.80
2023-03-16T05:26:34.125Z,85.90
2023-03-16T05:27:54.898Z,86.20
2023-03-16T05:29:15.588Z,86.00
2023-03-16T05:30:36.873Z,86.10
2023-03-16T05:31:57.407Z,86.10
2023-03-16T05:33:17.779Z,85.80
2023-03-16T05:34:38.472Z,85.80
2023-03-16T05:35:59.450Z,85.90
2023-03-16T05:37:21.308Z,86.00
2023-03-16T05:38:42.055Z,85.70
2023-03-16T05:40:03.154Z,86.00
2023-03-16T05:41:23.902Z,86.40
2023-03-16T05:42:47.480Z,86.20
2023-03-16T05:44:14.425Z,86.30
2023-03-16T05:45:36.563Z,86.10
2023-03-16T05:46:57.593Z,86.70
2023-03-16T05:48:18.337Z,86.70
2023-03-16T05:49:39.090Z,86.60
2023-03-16T05:50:59.905Z,86.40
2023-03-16T05:52:20.196Z,86.40
2023-03-16T05:53:40.886Z,86.60
2023-03-16T05:55:02.035Z,86.40
2023-03-16T05:56:23.577Z,86.20
2023-03-16T05:57:45.827Z,86.50
2023-03-16T05:59:06.518Z,86.20
2023-03-16T06:00:30.302Z,86.30
2023-03-16T06:01:51.219Z,86.60
2023-03-16T06:03:12.295Z,86.20
2023-03-16T06:04:32.920Z,86.10
2023-03-16T06:05:53.596Z,86.10
2023-03-16T06:07:14.391Z,86.00
2023-03-16T06:08:35.226Z,86.20
2023-03-16T06:09:55.731Z,86.60
2023-03-16T06:11:16.560Z,86.70
2023-03-16T06:12:37.116Z,86.50
2023-03-16T06:13:59.145Z,86.60
2023-03-16T06:15:19.839Z,86.60
2023-03-16T06:16:40.701Z,86.60
2023-03-16T06:18:01.394Z,86.40
2023-03-16T06:19:22.249Z,86.40
2023-03-16T06:20:42.650Z,86.70
2023-03-16T06:22:03.723Z,86.60
2023-03-16T06:23:24.696Z,86.40
2023-03-16T06:24:45.456Z,86.80
2023-03-16T06:26:06.233Z,86.50
2023-03-16T06:27:26.923Z,86.60
2023-03-16T06:28:48.597Z,86.60
2023-03-16T06:30:16.781Z,86.20
2023-03-16T06:31:37.636Z,86.30
2023-03-16T06:32:58.740Z,86.60
2023-03-16T06:34:19.674Z,86.90
2023-03-16T06:35:40.434Z,86.30
2023-03-16T06:37:01.079Z,86.10
2023-03-16T06:38:23.840Z,86.20
2023-03-16T06:39:44.663Z,86.30
2023-03-16T06:41:05.771Z,86.40
2023-03-16T06:42:26.491Z,86.30
2023-03-16T06:43:47.243Z,86.60
2023-03-16T06:45:08.937Z,86.90
2023-03-16T06:46:31.159Z,86.70
2023-03-16T06:47:53.940Z,86.60
2023-03-16T06:49:16.778Z,86.40
2023-03-16T06:50:37.618Z,86.20
2023-03-16T06:51:58.225Z,86.00
2023-03-16T06:53:18.741Z,86.20
2023-03-16T06:54:41.978Z,86.30
2023-03-16T06:56:11.831Z,86.20
2023-03-16T06:57:32.412Z,86.20
2023-03-16T06:58:53.310Z,86.50
2023-03-16T07:00:15.266Z,86.60
2023-03-16T07:01:37.081Z,86.60
2023-03-16T07:03:00.622Z,86.50
2023-03-16T07:04:22.139Z,86.20
2023-03-16T07:05:42.762Z,86.40
2023-03-16T07:07:06.164Z,86.30
2023-03-16T07:08:27.169Z,85.50
2023-03-16T07:09:50.449Z,85.90
2023-03-16T07:11:13.566Z,85.40
2023-03-16T07:12:34.122Z,85.40
2023-03-16T07:13:54.847Z,84.60
2023-03-16T07:15:15.744Z,85.10
2023-03-16T07:16:38.505Z,85.00
2023-03-16T07:17:59.404Z,85.30
2023-03-16T07:19:24.973Z,85.30
2023-03-16T07:20:45.924Z,84.90
2023-03-16T07:22:06.689Z,84.70
2023-03-16T07:23:27.271Z,84.40
2023-03-16T07:24:50.644Z,84.70
2023-03-16T07:26:11.759Z,84.30
2023-03-16T07:27:32.922Z,83.70
2023-03-16T07:28:55.246Z,83.70
2023-03-16T07:30:17.824Z,84.10
2023-03-16T07:31:42.899Z,83.70
2023-03-16T07:33:03.661Z,83.90
2023-03-16T07:34:23.913Z,83.30
2023-03-16T07:35:44.942Z,83.10
2023-03-16T07:37:05.579Z,83.40
2023-03-16T07:38:28.752Z,82.60
2023-03-16T07:39:52.200Z,82.90
2023-03-16T07:41:12.761Z,82.30
2023-03-16T07:42:33.877Z,81.80
2023-03-16T07:43:54.639Z,81.50
2023-03-16T07:45:15.537Z,81.20
2023-03-16T07:46:38.675Z,81.20
2023-03-16T07:48:00.968Z,81.50
2023-03-16T07:49:24.066Z,80.80
2023-03-16T07:50:44.966Z,80.60
2023-03-16T07:52:05.728Z,80.30
2023-03-16T07:53:29.752Z,80.70
2023-03-16T07:54:53.109Z,79.50
2023-03-16T07:56:13.802Z,80.10
2023-03-16T07:57:34.389Z,80.20
2023-03-16T07:58:55.098Z,80.30
2023-03-16T08:00:16.535Z,80.30
2023-03-16T08:01:37.409Z,80.00
2023-03-16T08:02:59.773Z,79.90
2023-03-16T08:04:20.232Z,79.20
2023-03-16T08:05:40.941Z,79.50
2023-03-16T08:07:01.686Z,79.20
2023-03-16T08:08:22.660Z,79.10
2023-03-16T08:09:46.137Z,78.70
2023-03-16T08:11:14.180Z,78.30
2023-03-16T08:12:38.887Z,77.60
2023-03-16T08:13:59.673Z,78.20
2023-03-16T08:15:23.652Z,77.70
2023-03-16T08:16:44.620Z,77.90
2023-03-16T08:18:07.150Z,77.90
2023-03-16T08:19:28.334Z,76.80
2023-03-16T08:20:49.041Z,77.00
2023-03-16T08:22:14.612Z,77.40
2023-03-16T08:23:35.464Z,77.20
2023-03-16T08:25:04.067Z,77.60
2023-03-16T08:26:25.397Z,77.00
2023-03-16T08:27:46.574Z,77.20
2023-03-16T08:29:07.658Z,77.20
2023-03-16T08:30:28.532Z,76.20
2023-03-16T08:31:49.097Z,76.10
2023-03-16T08:33:11.268Z,76.30
2023-03-16T08:34:32.117Z,76.00
2023-03-16T08:35:55.548Z,76.00
2023-03-16T08:37:15.992Z,75.80
2023-03-16T08:38:37.088Z,75.60
2023-03-16T08:39:57.713Z,76.00
2023-03-16T08:41:18.549Z,75.50
2023-03-16T08:42:42.936Z,76.00
2023-03-16T08:44:03.840Z,74.90
2023-03-16T08:45:24.268Z,75.20
2023-03-16T08:46:47.425Z,74.70
2023-03-16T08:48:10.134Z,74.70
2023-03-16T08:49:35.207Z,74.90
2023-03-16T08:50:58.203Z,74.60
2023-03-16T08:52:22.906Z,74.40
2023-03-16T08:53:43.874Z,73.70
2023-03-16T08:55:05.888Z,74.40
2023-03-16T08:56:30.200Z,74.20
2023-03-16T08:57:50.926Z,73.60
2023-03-16T08:59:23.568Z,74.70
2023-03-16T09:00:52.411Z,73.80
2023-03-16T09:02:13.940Z,73.90
2023-03-16T09:03:37.638Z,74.60
2023-03-16T09:04:59.661Z,74.20
2023-03-16T09:06:20.508Z,73.80
2023-03-16T09:07:41.645Z,73.40
2023-03-16T09:09:02.260Z,73.40
2023-03-16T09:10:23.317Z,73.40
2023-03-16T09:11:44.090Z,73.30
2023-03-16T09:13:04.948Z,73.90
2023-03-16T09:14:25.547Z,73.90
2023-03-16T09:15:45.952Z,72.20
2023-03-16T09:17:07.286Z,72.40
2023-03-16T09:18:28.386Z,72.10
2023-03-16T09:19:53.164Z,71.90
2023-03-16T09:21:20.423Z,72.80
2023-03-16T09:22:41.257Z,70.90
2023-03-16T09:24:02.424Z,71.10
2023-03-16T09:25:23.171Z,70.70
2023-03-16T09:26:45.562Z,70.50
2023-03-16T09:28:06.513Z,70.60
2023-03-16T09:29:30.024Z,70.20
2023-03-16T09:30:50.922Z,70.10
2023-03-16T09:32:14.686Z,69.60
2023-03-16T09:33:36.128Z,69.80
2023-03-16T09:34:57.188Z,70.20
2023-03-16T09:36:21.726Z,69.80
2023-03-16T09:38:01.109Z,69.80
2023-03-16T09:39:28.319Z,69.40
2023-03-16T09:40:49.464Z,69.00
2023-03-16T09:42:16.200Z,69.40
2023-03-16T09:43:51.479Z,69.80
2023-03-16T09:45:17.804Z,69.20
2023-03-16T09:46:44.330Z,69.20
2023-03-16T09:48:05.894Z,69.20
2023-03-16T09:49:27.731Z,69.20
2023-03-16T09:50:50.797Z,67.80
2023-03-16T09:52:22.168Z,67.50
2023-03-16T09:53:42.662Z,67.60
2023-03-16T09:55:11.108Z,67.60
2023-03-16T09:56:36.461Z,66.80
2023-03-16T09:57:58.057Z,66.40
2023-03-16T09:59:20.079Z,66.50
2023-03-16T10:00:46.487Z,66.40
2023-03-16T10:02:40.523Z,66.90
2023-03-16T10:04:09.639Z,66.20
2023-03-16T10:05:31.219Z,65.80
2023-03-16T10:07:01.367Z,66.70
2023-03-16T10:08:34.749Z,66.70
2023-03-16T10:10:01.244Z,66.30
2023-03-16T10:11:26.848Z,65.40
2023-03-16T10:12:50.137Z,65.30
2023-03-16T10:14:15.384Z,66.10
2023-03-16T10:15:39.293Z,65.10
2023-03-16T10:17:01.954Z,65.00
2023-03-16T10:18:26.056Z,66.10
2023-03-16T10:19:52.894Z,65.30
2023-03-16T10:21:17.480Z,64.60
2023-03-16T10:22:42.304Z,64.40
2023-03-16T10:24:09.885Z,64.50
2023-03-16T10:25:35.733Z,65.50
2023-03-16T10:26:57.919Z,63.80
2023-03-16T10:28:21.114Z,64.90
2023-03-16T10:29:46.598Z,64.00
2023-03-16T10:31:10.500Z,64.80
2023-03-16T10:32:32.738Z,62.90
2023-03-16T10:33:58.105Z,62.70
2023-03-16T10:35:40.314Z,62.70
2023-03-16T10:37:01.743Z,62.30
2023-03-16T10:38:30.936Z,62.60
2023-03-16T10:39:53.131Z,62.60
2023-03-16T10:41:27.563Z,63.20
2023-03-16T10:42:51.714Z,62.20
2023-03-16T10:44:14.558Z,61.60
2023-03-16T10:45:36.785Z,63.80
2023-03-16T10:47:01.934Z,62.90
2023-03-16T10:48:26.374Z,63.40
2023-03-16T10:49:41.034Z,63.60
2023-03-16T10:51:06.301Z,63.20
2023-03-16T10:52:34.523Z,62.80
2023-03-16T10:53:58.146Z,62.20
2023-03-16T10:55:23.348Z,62.10
2023-03-16T10:56:43.868Z,61.90
2023-03-16T10:58:04.598Z,62.60
2023-03-16T10:59:29.095Z,61.70
2023-03-16T11:00:49.666Z,61.00
2023-03-16T11:02:16.592Z,61.20
2023-03-16T11:03:40.053Z,61.20
2023-03-16T11:05:12.055Z,61.10
2023-03-16T11:06:33.202Z,62.60
2023-03-16T11:07:58.695Z,63.00
2023-03-16T11:09:22.822Z,62.00
2023-03-16T11:10:55.525Z,61.60
2023-03-16T11:12:24.696Z,61.10
2023-03-16T11:13:46.936Z,61.30
2023-03-16T11:15:25.165Z,62.20
2023-03-16T11:16:49.867Z,60.50
2023-03-16T11:18:20.476Z,62.00
2023-03-16T11:19:49.642Z,61.30
2023-03-16T11:21:15.959Z,61.60
2023-03-16T11:22:36.674Z,60.10
2023-03-16T11:23:59.107Z,60.70
2023-03-16T11:25:24.726Z,59.70
2023-03-16T11:26:48.956Z,60.60
2023-03-16T11:28:16.557Z,60.90
2023-03-16T11:29:44.564Z,59.70
2023-03-16T11:31:15.326Z,59.50
2023-03-16T11:32:37.572Z,61.10
2023-03-16T11:33:58.179Z,61.20
2023-03-16T11:35:20.663Z,59.90
2023-03-16T11:36:46.280Z,59.10
2023-03-16T11:38:13.590Z,59.50
2023-03-16T11:39:38.701Z,59.70
2023-03-16T11:41:01.360Z,58.60
2023-03-16T11:42:38.980Z,58.20
2023-03-16T11:44:03.253Z,58.50
2023-03-16T11:45:28.786Z,58.50
2023-03-16T11:46:55.450Z,57.80
2023-03-16T11:48:35.140Z,57.90
2023-03-16T11:50:00.352Z,58.10
2023-03-16T11:51:35.368Z,58.00
2023-03-16T11:53:01.395Z,57.60
2023-03-16T11:54:49.168Z,58.20
2023-03-16T11:56:18.819Z,58.90
2023-03-16T11:57:51.307Z,59.60
2023-03-16T11:59:26.736Z,58.50
2023-03-16T12:00:52.675Z,58.30
2023-03-16T12:02:36.072Z,59.30
2023-03-16T12:04:11.845Z,58.40
2023-03-16T12:05:46.611Z,57.40
2023-03-16T12:07:20.141Z,57.40
2023-03-16T12:09:14.875Z,56.60
2023-03-16T12:10:38.953Z,55.80
2023-03-16T12:12:03.952Z,56.30
2023-03-16T12:13:38.015Z,54.80
2023-03-16T12:15:09.663Z,54.80
2023-03-16T12:16:46.305Z,55.10
2023-03-16T12:18:17.371Z,55.40
2023-03-16T12:19:41.454Z,54.70
2023-03-16T12:21:03.720Z,54.30
2023-03-16T12:22:28.360Z,54.30
2023-03-16T12:23:51.738Z,54.60
2023-03-16T12:25:17.196Z,53.60
2023-03-16T12:26:40.813Z,53.90
2023-03-16T12:28:04.466Z,53.00
2023-03-16T12:29:32.248Z,53.70
2023-03-16T12:31:00.472Z,53.60
2023-03-16T12:32:30.006Z,53.00
2023-03-16T12:34:08.931Z,52.70
2023-03-16T12:35:36.811Z,52.60
2023-03-16T12:37:19.410Z,52.80
2023-03-16T12:38:45.088Z,52.20
2023-03-16T12:40:19.167Z,51.90
2023-03-16T12:41:45.129Z,52.50
2023-03-16T12:43:24.472Z,52.80
2023-03-16T12:44:47.953Z,52.30
2023-03-16T12:46:11.512Z,52.20
2023-03-16T12:47:36.743Z,52.20
2023-03-16T12:48:59.611Z,51.90
2023-03-16T12:50:20.671Z,51.20
2023-03-16T12:51:43.008Z,49.50
2023-03-16T12:53:05.311Z,50.30
2023-03-16T12:54:26.217Z,50.70
2023-03-16T12:55:46.938Z,50.50
2023-03-16T12:57:08.937Z,50.20
2023-03-16T12:58:29.707Z,50.00
2023-03-16T12:59:56.193Z,50.70
2023-03-16T13:01:18.998Z,49.80
2023-03-16T13:02:43.297Z,49.70
2023-03-16T13:04:10.269Z,49.60
2023-03-16T13:05:32.997Z,49.70
2023-03-16T13:07:01.878Z,49.30
2023-03-16T13:08:23.138Z,51.00
2023-03-16T13:09:46.886Z,49.30
2023-03-16T13:11:09.137Z,49.90
2023-03-16T13:12:31.170Z,49.70
2023-03-16T13:13:53.666Z,49.30
2023-03-16T13:15:29.336Z,49.70
2023-03-16T13:16:50.031Z,47.70
2023-03-16T13:18:22.064Z,48.90
2023-03-16T13:19:42.949Z,48.50
2023-03-16T13:21:15.532Z,48.10
2023-03-16T13:22:46.555Z,47.70
2023-03-16T13:24:22.392Z,47.30
2023-03-16T13:25:44.583Z,47.20
2023-03-16T13:27:11.343Z,46.90
2023-03-16T13:28:33.481Z,47.40
2023-03-16T13:29:59.756Z,46.90
2023-03-16T13:31:25.299Z,47.60
2023-03-16T13:32:46.349Z,46.60
2023-03-16T13:34:08.163Z,46.70
2023-03-16T13:35:30.507Z,46.20
2023-03-16T13:36:55.640Z,46.50
2023-03-16T13:38:17.318Z,47.10
2023-03-16T13:39:38.118Z,46.20
2023-03-16T13:41:03.332Z,46.80
2023-03-16T13:42:25.072Z,45.40
2023-03-16T13:43:45.285Z,45.70
2023-03-16T13:45:13.177Z,47.30
2023-03-16T13:46:35.131Z,45.90
2023-03-16T13:47:55.951Z,46.30
2023-03-16T13:49:16.314Z,45.20
2023-03-16T13:50:37.120Z,46.30
2023-03-16T13:51:57.798Z,44.80
2023-03-16T13:53:21.303Z,44.60
2023-03-16T13:54:41.726Z,45.50
2023-03-16T13:56:02.290Z,45.30
2023-03-16T13:57:25.924Z,46.00
2023-03-16T13:58:48.799Z,44.30
2023-03-16T14:00:15.823Z,43.60
2023-03-16T14:01:37.850Z,43.10
2023-03-16T14:03:00.144Z,45.10
2023-03-16T14:04:21.051Z,44.10
2023-03-16T14:05:41.507Z,44.90
2023-03-16T14:07:03.309Z,44.00
2023-03-16T14:08:24.521Z,44.00
2023-03-16T14:09:45.413Z,44.50
2023-03-16T14:11:05.793Z,43.50
2023-03-16T14:12:26.655Z,44.30
2023-03-16T14:13:51.172Z,44.30
2023-03-16T14:15:13.480Z,43.70
2023-03-16T14:16:36.926Z,43.80
2023-03-16T14:18:12.297Z,43.60
2023-03-16T14:19:44.715Z,44.40
2023-03-16T14:21:08.122Z,44.50
2023-03-16T14:22:31.229Z,43.60
2023-03-16T14:23:53.131Z,43.20
2023-03-16T14:25:19.825Z,43.10
2023-03-16T14:26:41.890Z,43.20
2023-03-16T14:28:07.212Z,43.00
2023-03-16T14:29:29.077Z,42.60
2023-03-16T14:30:51.407Z,43.20
2023-03-16T14:32:24.285Z,44.30
2023-03-16T14:33:44.954Z,43.50
2023-03-16T14:35:13.778Z,44.20
2023-03-16T14:36:36.156Z,44.10
2023-03-16T14:37:56.765Z,43.90
2023-03-16T14:39:20.259Z,43.20
2023-03-16T14:40:53.154Z,42.50
2023-03-16T14:42:21.361Z,43.20
2023-03-16T14:43:47.426Z,42.80
2023-03-16T14:45:12.544Z,44.10
2023-03-16T14:46:37.553Z,43.80
2023-03-16T14:48:05.030Z,43.70
2023-03-16T14:49:27.833Z,43.60
2023-03-16T14:50:53.496Z,44.70
2023-03-16T14:52:21.972Z,45.10
2023-03-16T14:53:42.590Z,43.70
2023-03-16T14:55:10.767Z,43.80
2023-03-16T14:56:33.976Z,44.70
2023-03-16T14:57:54.465Z,44.60
2023-03-16T14:59:15.087Z,44.30
2023-03-16T15:00:50.225Z,43.70
2023-03-16T15:02:16.780Z,43.80
2023-03-16T15:03:39.057Z,43.20
2023-03-16T15:05:00.939Z,44.50
2023-03-16T15:06:21.755Z,43.60
2023-03-16T15:07:42.848Z,43.40
2023-03-16T15:09:03.448Z,44.00
2023-03-16T15:10:26.101Z,43.80
2023-03-16T15:11:46.679Z,42.90
2023-03-16T15:13:13.493Z,42.90
2023-03-16T15:14:34.234Z,43.60
2023-03-16T15:15:55.251Z,43.60
2023-03-16T15:17:15.865Z,43.80
2023-03-16T15:18:38.054Z,45.30
2023-03-16T15:19:58.655Z,44.90
2023-03-16T15:21:21.329Z,45.00
2023-03-16T15:22:43.027Z,42.80
2023-03-16T15:24:03.511Z,43.50
2023-03-16T15:25:32.570Z,43.00
2023-03-16T15:26:55.370Z,43.70
2023-03-16T15:28:17.609Z,44.20
2023-03-16T15:29:38.294Z,43.90
2023-03-16T15:31:00.492Z,44.00
2023-03-16T15:32:20.760Z,42.70
2023-03-16T15:33:42.726Z,44.40
2023-03-16T15:35:03.522Z,43.60
2023-03-16T15:36:24.070Z,42.80
2023-03-16T15:37:45.548Z,43.80
2023-03-16T15:39:06.179Z,44.30
2023-03-16T15:40:29.013Z,44.00
2023-03-16T15:41:49.724Z,43.40
2023-03-16T15:43:11.388Z,43.80
2023-03-16T15:44:32.095Z,44.40
2023-03-16T15:45:53.224Z,44.60
2023-03-16T15:47:13.436Z,44.60
2023-03-16T15:48:34.242Z,44.60
2023-03-16T15:49:55.868Z,45.80
2023-03-16T15:51:20.907Z,45.40
2023-03-16T15:52:43.136Z,45.30
2023-03-16T15:54:04.995Z,44.80
2023-03-16T15:55:31.173Z,44.70
2023-03-16T15:56:54.629Z,45.20
2023-03-16T15:58:17.509Z,45.40
2023-03-16T15:59:38.347Z,46.10
2023-03-16T16:01:00.254Z,46.00
2023-03-16T16:02:26.052Z,46.20
2023-03-16T16:03:46.926Z,45.50
2023-03-16T16:05:10.481Z,46.40
2023-03-16T16:06:31.171Z,45.80
2023-03-16T16:07:51.961Z,46.00
2023-03-16T16:09:12.738Z,45.30
2023-03-16T16:10:34.048Z,44.30
2023-03-16T16:11:54.578Z,44.50
2023-03-16T16:13:19.189Z,45.40
2023-03-16T16:14:39.867Z,45.20
2023-03-16T16:16:00.557Z,44.40
2023-03-16T16:17:22.822Z,46.50
2023-03-16T16:18:46.146Z,45.20
2023-03-16T16:20:11.592Z,45.80
2023-03-16T16:21:31.950Z,44.70
2023-03-16T16:22:52.875Z,44.80
2023-03-16T16:24:13.569Z,45.60
2023-03-16T16:25:36.574Z,45.90
2023-03-16T16:26:57.286Z,45.20
2023-03-16T16:28:21.007Z,45.10
2023-03-16T16:29:41.372Z,45.10
2023-03-16T16:31:01.754Z,44.00
2023-03-16T16:32:23.760Z,45.00
2023-03-16T16:33:44.521Z,46.30
2023-03-16T16:35:14.767Z,46.00
2023-03-16T16:36:35.226Z,45.00
2023-03-16T16:37:55.795Z,45.20
2023-03-16T16:39:16.622Z,44.50
2023-03-16T16:40:39.061Z,45.30
2023-03-16T16:41:59.387Z,45.40
2023-03-16T16:43:29.986Z,45.30
2023-03-16T16:44:51.080Z,45.60
2023-03-16T16:46:14.199Z,46.30
2023-03-16T16:47:35.139Z,46.80
2023-03-16T16:48:59.505Z,46.40
2023-03-16T16:50:23.955Z,46.00
2023-03-16T16:51:44.563Z,46.70
2023-03-16T16:53:16.717Z,46.20
2023-03-16T16:54:36.877Z,46.40
2023-03-16T16:55:57.531Z,47.20
2023-03-16T16:57:18.611Z,46.90
2023-03-16T16:58:39.090Z,46.60
2023-03-16T16:59:59.619Z,47.20
2023-03-16T17:01:23.453Z,48.00
2023-03-16T17:02:46.259Z,48.70
2023-03-16T17:04:13.332Z,48.80
2023-03-16T17:05:35.273Z,48.40
2023-03-16T17:06:57.359Z,48.90
2023-03-16T17:08:17.907Z,48.60
2023-03-16T17:09:38.511Z,48.70
2023-03-16T17:10:58.918Z,47.80
2023-03-16T17:12:21.759Z,48.60
2023-03-16T17:13:42.499Z,48.70
2023-03-16T17:15:03.047Z,48.60
2023-03-16T17:16:23.983Z,48.50
2023-03-16T17:17:44.508Z,50.00
2023-03-16T17:19:06.254Z,49.30
2023-03-16T17:20:27.076Z,49.40
2023-03-16T17:21:49.322Z,49.60
2023-03-16T17:23:25.943Z,50.00
2023-03-16T17:24:46.282Z,49.80
2023-03-16T17:26:12.839Z,49.50
2023-03-16T17:27:33.188Z,49.60
2023-03-16T17:28:56.758Z,49.90
2023-03-16T17:30:25.880Z,50.40
2023-03-16T17:31:46.556Z,51.00
2023-03-16T17:33:13.061Z,51.00
2023-03-16T17:34:34.429Z,51.00
2023-03-16T17:35:55.151Z,51.60
2023-03-16T17:37:18.425Z,50.60
2023-03-16T17:38:38.929Z,50.80
2023-03-16T17:39:59.302Z,50.80
2023-03-16T17:41:22.522Z,50.80
2023-03-16T17:42:43.747Z,50.50
2023-03-16T17:44:07.249Z,50.90
2023-03-16T17:45:30.330Z,50.90
2023-03-16T17:46:51.264Z,51.00
2023-03-16T17:48:13.928Z,51.70
2023-03-16T17:49:34.825Z,51.90